This is the latest recevied weather packets stored in our database for station/object BMCB-27. If no packets are shown the sender has not sent any weather packets the latest 10 day(s).
| Time | Temp. | Humidity | Pressure | Rain* | Wind** | Luminosity | Snow |
|---|---|---|---|---|---|---|---|
| 1777497385 | 11.67° C | 40% | 1022.4 hPa | 0 mm | - | 0 W/m² | - |
| 1777496244 | 12.78° C | 37% | 1022.2 hPa | 0 mm | - | 0 W/m² | - |
| 1777491354 | 13.33° C | 38% | 1021.5 hPa | 0 mm | - | 0 W/m² | - |
| 1777490728 | 13.89° C | 38% | 1021.4 hPa | 0 mm | - | 0 W/m² | - |
| 1777490031 | 14.44° C | 36% | 1021.2 hPa | 0 mm | - | 0 W/m² | - |
| 1777489499 | 14.44° C | 35% | 1021.1 hPa | 0 mm | - | 0 W/m² | - |
| 1777487940 | 15.56° C | 33% | 1020.6 hPa | 0 mm | - | 6 W/m² | - |
| 1777483494 | 17.78° C | 30% | 1019.8 hPa | 0 mm | - | 128 W/m² | - |
| 1777481678 | 18.33° C | 32% | 1019.8 hPa | 0 mm | - | 198 W/m² | - |
| 1777476804 | 18.89° C | 30% | 1019.7 hPa | 0 mm | - | 414 W/m² | - |
| 1777475568 | 18.89° C | 30% | 1019.8 hPa | 0 mm | - | 460 W/m² | - |
| 1777470959 | 18.89° C | 35% | 1019.9 hPa | 0 mm | - | 592 W/m² | - |
| 1777470660 | 18.89° C | 36% | 1019.9 hPa | 0 mm | - | 618 W/m² | - |
| 1777470288 | 18.89° C | 35% | 1020 hPa | 0 mm | - | 626 W/m² | - |
| 1777466460 | 17.78° C | 39% | 1020.3 hPa | 0 mm | - | 710 W/m² | - |
| 1777464087 | 17.22° C | 41% | 1020.6 hPa | 0 mm | - | 734 W/m² | - |
| 1777461575 | 17.22° C | 42% | 1020.8 hPa | 0 mm | - | 740 W/m² | - |
| 1777460704 | 16.67° C | 43% | 1020.9 hPa | 0 mm | - | 736 W/m² | - |
| 1777456914 | 15.56° C | 44% | 1020.9 hPa | 0 mm | - | 688 W/m² | - |
| 1777453673 | 13.33° C | 45% | 1021 hPa | 0 mm | - | 606 W/m² | - |
| 1777451005 | 12.22° C | 49% | 1021.1 hPa | 0 mm | - | 522 W/m² | - |
| 1777448599 | 11.11° C | 49% | 1021.2 hPa | 0 mm | - | 430 W/m² | - |
| 1777446996 | 10° C | 54% | 1021.1 hPa | 0 mm | - | 362 W/m² | - |
| 1777446694 | 10° C | 54% | 1021.1 hPa | 0 mm | - | 348 W/m² | - |
| 1777446183 | 9.44° C | 55% | 1021 hPa | 0 mm | - | 330 W/m² | - |
* Rain latest hour (hover to see other rain measurements)
** Current wind speed in m/s (hover to see current wind gust speed)